sensor_id;sensor_type;location;lat;lon;timestamp;pressure;altitude;pressure_sealevel;temperature;humidity
54465;BME280;40374;49.480;20.016;2023-02-28T00:01:35;95883.56;;;1.76;55.17
54465;BME280;40374;49.480;20.016;2023-02-28T00:04:05;95888.47;;;1.92;55.19
54465;BME280;40374;49.480;20.016;2023-02-28T00:06:36;95885.59;;;1.80;55.17
54465;BME280;40374;49.480;20.016;2023-02-28T00:09:03;95888.84;;;1.76;55.36
54465;BME280;40374;49.480;20.016;2023-02-28T00:11:31;95891.72;;;1.74;55.35
54465;BME280;40374;49.480;20.016;2023-02-28T00:13:58;95892.31;;;1.70;55.74
54465;BME280;40374;49.480;20.016;2023-02-28T00:16:26;95903.13;;;1.68;55.44
54465;BME280;40374;49.480;20.016;2023-02-28T00:18:53;95904.16;;;1.74;55.38
54465;BME280;40374;49.480;20.016;2023-02-28T00:21:21;95892.31;;;1.70;55.37
54465;BME280;40374;49.480;20.016;2023-02-28T00:23:48;95905.56;;;1.70;55.54
54465;BME280;40374;49.480;20.016;2023-02-28T00:26:16;95894.97;;;1.70;55.80
54465;BME280;40374;49.480;20.016;2023-02-28T00:28:47;95897.22;;;1.79;55.69
54465;BME280;40374;49.480;20.016;2023-02-28T00:31:15;95897.63;;;1.70;55.72
54465;BME280;40374;49.480;20.016;2023-02-28T00:33:45;95901.28;;;1.62;55.76
54465;BME280;40374;49.480;20.016;2023-02-28T00:36:14;95902.72;;;1.65;56.19
54465;BME280;40374;49.480;20.016;2023-02-28T00:38:41;95892.91;;;1.65;56.07
54465;BME280;40374;49.480;20.016;2023-02-28T00:41:09;95902.31;;;1.68;55.70
54465;BME280;40374;49.480;20.016;2023-02-28T00:43:38;95887.63;;;1.72;55.59
54465;BME280;40374;49.480;20.016;2023-02-28T00:46:06;95899.88;;;1.73;55.22
54465;BME280;40374;49.480;20.016;2023-02-28T00:48:34;95895.19;;;1.68;55.69
54465;BME280;40374;49.480;20.016;2023-02-28T00:51:03;95887.81;;;1.63;55.62
54465;BME280;40374;49.480;20.016;2023-02-28T00:53:30;95892.50;;;1.61;55.94
54465;BME280;40374;49.480;20.016;2023-02-28T00:55:59;95892.47;;;1.55;56.12
54465;BME280;40374;49.480;20.016;2023-02-28T00:58:27;95894.16;;;1.62;55.44
54465;BME280;40374;49.480;20.016;2023-02-28T01:00:55;95874.53;;;1.50;55.51
54465;BME280;40374;49.480;20.016;2023-02-28T01:03:22;95884.31;;;1.50;54.97
54465;BME280;40374;49.480;20.016;2023-02-28T01:05:51;95899.00;;;1.52;55.41
54465;BME280;40374;49.480;20.016;2023-02-28T01:08:20;95885.56;;;1.54;55.16
54465;BME280;40374;49.480;20.016;2023-02-28T01:10:48;95888.41;;;1.59;55.63
54465;BME280;40374;49.480;20.016;2023-02-28T01:13:17;95880.88;;;1.56;55.50
54465;BME280;40374;49.480;20.016;2023-02-28T01:15:50;95896.19;;;1.74;55.52
54465;BME280;40374;49.480;20.016;2023-02-28T01:18:19;95901.31;;;1.69;55.60
54465;BME280;40374;49.480;20.016;2023-02-28T01:20:47;95890.88;;;1.60;55.43
54465;BME280;40374;49.480;20.016;2023-02-28T01:23:15;95891.69;;;1.61;55.43
54465;BME280;40374;49.480;20.016;2023-02-28T01:25:43;95895.13;;;1.55;55.28
54465;BME280;40374;49.480;20.016;2023-02-28T01:28:10;95894.69;;;1.45;55.35
54465;BME280;40374;49.480;20.016;2023-02-28T01:30:38;95889.56;;;1.36;55.38
54465;BME280;40374;49.480;20.016;2023-02-28T01:33:05;95881.03;;;1.41;55.26
54465;BME280;40374;49.480;20.016;2023-02-28T01:35:34;95887.38;;;1.53;55.31
54465;BME280;40374;49.480;20.016;2023-02-28T01:38:02;95887.78;;;1.57;55.54
54465;BME280;40374;49.480;20.016;2023-02-28T01:40:47;95878.97;;;1.36;55.25
54465;BME280;40374;49.480;20.016;2023-02-28T01:43:24;95869.03;;;1.45;55.50
54465;BME280;40374;49.480;20.016;2023-02-28T01:45:55;95880.81;;;1.36;55.22
54465;BME280;40374;49.480;20.016;2023-02-28T01:48:30;95874.28;;;1.32;55.12
54465;BME280;40374;49.480;20.016;2023-02-28T01:51:02;95876.94;;;1.38;55.57
54465;BME280;40374;49.480;20.016;2023-02-28T01:53:34;95880.59;;;1.24;55.28
54465;BME280;40374;49.480;20.016;2023-02-28T01:56:06;95879.19;;;1.35;55.35
54465;BME280;40374;49.480;20.016;2023-02-28T01:58:36;95866.09;;;1.20;54.85
54465;BME280;40374;49.480;20.016;2023-02-28T02:01:04;95859.34;;;1.17;54.74
54465;BME280;40374;49.480;20.016;2023-02-28T02:03:33;95862.22;;;1.23;55.14
54465;BME280;40374;49.480;20.016;2023-02-28T02:06:02;95860.13;;;1.11;54.80
54465;BME280;40374;49.480;20.016;2023-02-28T02:08:30;95865.66;;;1.10;54.92
54465;BME280;40374;49.480;20.016;2023-02-28T02:11:00;95855.28;;;1.21;55.21
54465;BME280;40374;49.480;20.016;2023-02-28T02:16:34;95864.22;;;1.14;55.15
54465;BME280;40374;49.480;20.016;2023-02-28T02:27:57;95849.50;;;0.98;55.27
54465;BME280;40374;49.480;20.016;2023-02-28T02:30:53;95857.25;;;0.99;55.39
54465;BME280;40374;49.480;20.016;2023-02-28T02:36:51;95845.38;;;0.89;55.56
54465;BME280;40374;49.480;20.016;2023-02-28T02:39:54;95852.47;;;0.81;56.03
54465;BME280;40374;49.480;20.016;2023-02-28T02:42:31;95841.19;;;0.66;56.10
54465;BME280;40374;49.480;20.016;2023-02-28T02:45:12;95845.66;;;0.59;56.33
54465;BME280;40374;49.480;20.016;2023-02-28T02:47:42;95842.28;;;0.44;56.34
54465;BME280;40374;49.480;20.016;2023-02-28T02:50:16;95845.31;;;0.34;56.77
54465;BME280;40374;49.480;20.016;2023-02-28T02:52:52;95853.66;;;0.37;57.20
54465;BME280;40374;49.480;20.016;2023-02-28T02:55:23;95844.06;;;0.30;57.08
54465;BME280;40374;49.480;20.016;2023-02-28T02:57:54;95839.78;;;0.35;57.03
54465;BME280;40374;49.480;20.016;2023-02-28T03:00:29;95852.66;;;0.38;57.14
54465;BME280;40374;49.480;20.016;2023-02-28T03:02:58;95859.84;;;0.23;57.26
54465;BME280;40374;49.480;20.016;2023-02-28T03:05:35;95842.97;;;0.24;57.11
54465;BME280;40374;49.480;20.016;2023-02-28T03:08:06;95857.25;;;0.02;57.50
54465;BME280;40374;49.480;20.016;2023-02-28T03:10:39;95855.25;;;0.04;58.03
54465;BME280;40374;49.480;20.016;2023-02-28T03:13:32;95862.75;;;0.00;58.15
54465;BME280;40374;49.480;20.016;2023-02-28T03:22:00;95865.34;;;-0.28;58.75
54465;BME280;40374;49.480;20.016;2023-02-28T03:27:11;95871.06;;;-0.68;60.54
54465;BME280;40374;49.480;20.016;2023-02-28T03:30:18;95870.00;;;-0.73;61.24
54465;BME280;40374;49.480;20.016;2023-02-28T03:32:58;95870.09;;;-0.82;61.55
54465;BME280;40374;49.480;20.016;2023-02-28T03:35:34;95864.47;;;-0.93;61.82
54465;BME280;40374;49.480;20.016;2023-02-28T03:38:09;95871.31;;;-0.99;62.91
54465;BME280;40374;49.480;20.016;2023-02-28T03:40:45;95876.97;;;-1.02;65.04
54465;BME280;40374;49.480;20.016;2023-02-28T03:43:21;95878.69;;;-1.09;64.78
54465;BME280;40374;49.480;20.016;2023-02-28T03:45:50;95889.38;;;-1.17;65.54
54465;BME280;40374;49.480;20.016;2023-02-28T03:48:23;95878.53;;;-1.23;65.80
54465;BME280;40374;49.480;20.016;2023-02-28T03:50:55;95887.72;;;-1.18;66.08
54465;BME280;40374;49.480;20.016;2023-02-28T03:53:38;95881.34;;;-1.24;67.24
54465;BME280;40374;49.480;20.016;2023-02-28T03:56:39;95895.00;;;-1.20;68.77
54465;BME280;40374;49.480;20.016;2023-02-28T03:59:19;95897.56;;;-1.27;68.35
54465;BME280;40374;49.480;20.016;2023-02-28T04:01:48;95899.47;;;-1.36;69.57
54465;BME280;40374;49.480;20.016;2023-02-28T04:04:17;95903.38;;;-1.47;68.76
54465;BME280;40374;49.480;20.016;2023-02-28T04:06:45;95902.94;;;-1.50;70.97
54465;BME280;40374;49.480;20.016;2023-02-28T04:09:14;95903.00;;;-1.44;72.50
54465;BME280;40374;49.480;20.016;2023-02-28T04:11:49;95901.75;;;-1.48;70.78
54465;BME280;40374;49.480;20.016;2023-02-28T04:14:19;95901.00;;;-1.56;73.36
54465;BME280;40374;49.480;20.016;2023-02-28T04:16:46;95899.47;;;-1.66;72.18
54465;BME280;40374;49.480;20.016;2023-02-28T04:19:14;95914.91;;;-1.63;71.82
54465;BME280;40374;49.480;20.016;2023-02-28T04:21:47;95895.56;;;-1.70;74.73
54465;BME280;40374;49.480;20.016;2023-02-28T04:24:20;95907.66;;;-1.60;72.68
54465;BME280;40374;49.480;20.016;2023-02-28T04:26:50;95899.81;;;-1.69;73.98
54465;BME280;40374;49.480;20.016;2023-02-28T04:29:32;95900.75;;;-1.61;75.05
54465;BME280;40374;49.480;20.016;2023-02-28T04:32:00;95903.72;;;-1.79;75.22
54465;BME280;40374;49.480;20.016;2023-02-28T04:34:31;95908.38;;;-1.67;74.84
54465;BME280;40374;49.480;20.016;2023-02-28T04:37:00;95909.06;;;-1.73;75.05
54465;BME280;40374;49.480;20.016;2023-02-28T04:39:40;95901.47;;;-1.68;75.42
54465;BME280;40374;49.480;20.016;2023-02-28T04:42:08;95899.81;;;-1.69;75.91
54465;BME280;40374;49.480;20.016;2023-02-28T04:44:36;95904.09;;;-1.68;76.06
54465;BME280;40374;49.480;20.016;2023-02-28T04:47:03;95888.44;;;-1.69;75.73
54465;BME280;40374;49.480;20.016;2023-02-28T04:49:32;95894.00;;;-1.64;78.46
54465;BME280;40374;49.480;20.016;2023-02-28T04:51:59;95894.72;;;-1.70;79.18
54465;BME280;40374;49.480;20.016;2023-02-28T04:54:26;95901.38;;;-1.59;76.15
54465;BME280;40374;49.480;20.016;2023-02-28T04:56:55;95898.53;;;-1.58;76.73
54465;BME280;40374;49.480;20.016;2023-02-28T04:59:23;95887.00;;;-1.57;76.47
54465;BME280;40374;49.480;20.016;2023-02-28T05:01:50;95885.34;;;-1.58;77.56
54465;BME280;40374;49.480;20.016;2023-02-28T05:04:17;95902.53;;;-1.47;79.03
54465;BME280;40374;49.480;20.016;2023-02-28T05:06:45;95882.53;;;-1.56;78.69
54465;BME280;40374;49.480;20.016;2023-02-28T05:09:12;95897.81;;;-1.37;78.40
54465;BME280;40374;49.480;20.016;2023-02-28T05:11:41;95897.66;;;-1.35;77.84
54465;BME280;40374;49.480;20.016;2023-02-28T05:14:11;95903.66;;;-1.27;79.87
54465;BME280;40374;49.480;20.016;2023-02-28T05:16:41;95902.38;;;-1.31;80.33
54465;BME280;40374;49.480;20.016;2023-02-28T05:19:09;95900.47;;;-1.22;80.72
54465;BME280;40374;49.480;20.016;2023-02-28T05:21:38;95901.38;;;-1.15;80.13
54465;BME280;40374;49.480;20.016;2023-02-28T05:24:09;95905.94;;;-1.09;80.25
54465;BME280;40374;49.480;20.016;2023-02-28T05:26:39;95892.66;;;-1.15;79.70
54465;BME280;40374;49.480;20.016;2023-02-28T05:29:08;95911.78;;;-1.13;79.88
54465;BME280;40374;49.480;20.016;2023-02-28T05:31:36;95899.94;;;-1.32;80.95
54465;BME280;40374;49.480;20.016;2023-02-28T05:34:04;95912.84;;;-1.37;83.89
54465;BME280;40374;49.480;20.016;2023-02-28T05:36:31;95914.38;;;-1.28;84.88
54465;BME280;40374;49.480;20.016;2023-02-28T05:38:59;95913.03;;;-1.39;87.32
54465;BME280;40374;49.480;20.016;2023-02-28T05:41:26;95930.34;;;-1.36;89.00
54465;BME280;40374;49.480;20.016;2023-02-28T05:43:55;95933.50;;;-1.41;89.36
54465;BME280;40374;49.480;20.016;2023-02-28T05:46:22;95924.22;;;-1.37;89.00
54465;BME280;40374;49.480;20.016;2023-02-28T05:48:49;95935.22;;;-1.33;89.57
54465;BME280;40374;49.480;20.016;2023-02-28T05:51:17;95939.97;;;-1.29;89.92
54465;BME280;40374;49.480;20.016;2023-02-28T05:53:45;95942.81;;;-1.15;88.00
54465;BME280;40374;49.480;20.016;2023-02-28T05:56:12;95951.06;;;-1.18;87.25
54465;BME280;40374;49.480;20.016;2023-02-28T05:58:40;95955.81;;;-1.14;87.32
54465;BME280;40374;49.480;20.016;2023-02-28T06:03:52;95949.44;;;-1.05;85.94
54465;BME280;40374;49.480;20.016;2023-02-28T06:06:19;95953.63;;;-0.95;85.78
54465;BME280;40374;49.480;20.016;2023-02-28T06:08:47;95947.16;;;-0.93;84.40
54465;BME280;40374;49.480;20.016;2023-02-28T06:11:15;95949.50;;;-0.83;82.27
54465;BME280;40374;49.480;20.016;2023-02-28T06:13:42;95954.69;;;-0.75;80.90
54465;BME280;40374;49.480;20.016;2023-02-28T06:16:11;95963.47;;;-0.53;79.19
54465;BME280;40374;49.480;20.016;2023-02-28T06:18:39;95964.84;;;-0.57;80.00
54465;BME280;40374;49.480;20.016;2023-02-28T06:21:06;95963.13;;;-0.50;79.40
54465;BME280;40374;49.480;20.016;2023-02-28T06:23:34;95967.59;;;-0.50;79.90
54465;BME280;40374;49.480;20.016;2023-02-28T06:26:01;95977.13;;;-0.34;80.00
54465;BME280;40374;49.480;20.016;2023-02-28T06:28:29;95974.06;;;-0.16;75.53
54465;BME280;40374;49.480;20.016;2023-02-28T06:30:56;95982.69;;;-0.08;72.20
54465;BME280;40374;49.480;20.016;2023-02-28T06:33:24;95989.50;;;0.02;73.54
54465;BME280;40374;49.480;20.016;2023-02-28T06:35:52;95985.16;;;0.15;72.32
54465;BME280;40374;49.480;20.016;2023-02-28T06:38:20;95983.19;;;0.24;71.34
54465;BME280;40374;49.480;20.016;2023-02-28T06:40:54;95978.00;;;0.59;69.24
54465;BME280;40374;49.480;20.016;2023-02-28T06:43:23;95975.19;;;0.67;68.74
54465;BME280;40374;49.480;20.016;2023-02-28T06:45:50;95967.06;;;0.69;67.26
54465;BME280;40374;49.480;20.016;2023-02-28T06:48:18;95969.03;;;0.88;66.61
54465;BME280;40374;49.480;20.016;2023-02-28T06:50:45;95949.69;;;0.94;67.08
54465;BME280;40374;49.480;20.016;2023-02-28T06:53:14;95959.66;;;1.20;65.83
54465;BME280;40374;49.480;20.016;2023-02-28T06:55:41;95957.84;;;1.28;64.20
54465;BME280;40374;49.480;20.016;2023-02-28T06:58:09;95951.75;;;1.34;64.49
54465;BME280;40374;49.480;20.016;2023-02-28T07:00:45;95963.47;;;1.59;62.63
54465;BME280;40374;49.480;20.016;2023-02-28T07:03:13;95960.44;;;1.62;62.44
54465;BME280;40374;49.480;20.016;2023-02-28T07:05:42;95963.09;;;1.62;61.88
54465;BME280;40374;49.480;20.016;2023-02-28T07:08:09;95957.00;;;1.75;61.89
54465;BME280;40374;49.480;20.016;2023-02-28T07:10:38;95957.06;;;1.95;60.70
54465;BME280;40374;49.480;20.016;2023-02-28T07:13:07;95963.16;;;1.89;59.29
54465;BME280;40374;49.480;20.016;2023-02-28T07:15:35;95953.69;;;1.60;58.66
54465;BME280;40374;49.480;20.016;2023-02-28T07:18:07;95960.41;;;1.49;59.42
54465;BME280;40374;49.480;20.016;2023-02-28T07:20:35;95957.75;;;1.56;59.29
54465;BME280;40374;49.480;20.016;2023-02-28T07:23:02;95947.31;;;1.48;59.76
54465;BME280;40374;49.480;20.016;2023-02-28T07:25:29;95956.56;;;1.72;59.44
54465;BME280;40374;49.480;20.016;2023-02-28T07:27:57;95965.59;;;1.84;58.74
54465;BME280;40374;49.480;20.016;2023-02-28T07:30:25;95948.41;;;1.67;58.52
54465;BME280;40374;49.480;20.016;2023-02-28T07:32:53;95954.16;;;1.83;58.81
54465;BME280;40374;49.480;20.016;2023-02-28T07:35:23;95972.38;;;2.07;58.28
54465;BME280;40374;49.480;20.016;2023-02-28T07:37:50;95947.66;;;1.93;58.06
54465;BME280;40374;49.480;20.016;2023-02-28T07:40:18;95964.84;;;2.30;57.40
54465;BME280;40374;49.480;20.016;2023-02-28T07:42:46;95965.06;;;2.62;56.84
54465;BME280;40374;49.480;20.016;2023-02-28T07:45:16;95963.97;;;3.16;56.82
54465;BME280;40374;49.480;20.016;2023-02-28T07:47:44;95968.00;;;3.39;55.30
54465;BME280;40374;49.480;20.016;2023-02-28T07:50:14;95969.53;;;3.66;53.23
54465;BME280;40374;49.480;20.016;2023-02-28T07:52:42;95972.25;;;3.98;53.24
54465;BME280;40374;49.480;20.016;2023-02-28T07:55:10;95967.13;;;4.35;52.57
54465;BME280;40374;49.480;20.016;2023-02-28T07:57:37;95954.19;;;4.64;50.47
54465;BME280;40374;49.480;20.016;2023-02-28T08:00:07;95965.59;;;4.96;49.25
54465;BME280;40374;49.480;20.016;2023-02-28T08:02:40;95950.81;;;4.75;48.91
54465;BME280;40374;49.480;20.016;2023-02-28T08:05:08;95953.69;;;5.17;48.94
54465;BME280;40374;49.480;20.016;2023-02-28T08:07:35;95947.31;;;5.74;48.19
54465;BME280;40374;49.480;20.016;2023-02-28T08:10:03;95945.50;;;6.04;47.29
54465;BME280;40374;49.480;20.016;2023-02-28T08:12:32;95935.38;;;6.48;46.27
54465;BME280;40374;49.480;20.016;2023-02-28T08:15:00;95949.50;;;6.79;45.27
54465;BME280;40374;49.480;20.016;2023-02-28T08:17:28;95949.16;;;7.11;45.27
54465;BME280;40374;49.480;20.016;2023-02-28T08:19:56;95946.31;;;7.53;43.83
54465;BME280;40374;49.480;20.016;2023-02-28T08:22:23;95951.41;;;7.66;42.59
54465;BME280;40374;49.480;20.016;2023-02-28T08:24:50;95956.69;;;8.19;42.18
54465;BME280;40374;49.480;20.016;2023-02-28T08:27:18;95951.53;;;8.58;41.38
54465;BME280;40374;49.480;20.016;2023-02-28T08:29:48;95946.09;;;8.52;40.73
54465;BME280;40374;49.480;20.016;2023-02-28T08:32:15;95948.63;;;8.76;40.67
54465;BME280;40374;49.480;20.016;2023-02-28T08:34:55;95956.16;;;8.62;39.74
54465;BME280;40374;49.480;20.016;2023-02-28T08:37:23;95957.53;;;8.48;39.57
54465;BME280;40374;49.480;20.016;2023-02-28T08:39:50;95952.00;;;8.54;39.28
54465;BME280;40374;49.480;20.016;2023-02-28T08:42:23;95948.66;;;8.47;39.06
54465;BME280;40374;49.480;20.016;2023-02-28T08:44:50;95959.00;;;8.27;39.67
54465;BME280;40374;49.480;20.016;2023-02-28T08:47:18;95944.59;;;8.45;39.63
54465;BME280;40374;49.480;20.016;2023-02-28T08:49:45;95957.63;;;8.70;39.13
54465;BME280;40374;49.480;20.016;2023-02-28T08:52:13;95960.31;;;8.70;38.23
54465;BME280;40374;49.480;20.016;2023-02-28T08:54:40;95960.22;;;9.16;38.99
54465;BME280;40374;49.480;20.016;2023-02-28T08:57:08;95944.22;;;9.43;38.40
54465;BME280;40374;49.480;20.016;2023-02-28T08:59:35;95954.81;;;9.71;38.53
54465;BME280;40374;49.480;20.016;2023-02-28T09:02:03;95956.34;;;9.67;37.48
54465;BME280;40374;49.480;20.016;2023-02-28T09:04:30;95962.09;;;8.81;38.38
54465;BME280;40374;49.480;20.016;2023-02-28T09:06:58;95961.63;;;8.67;38.85
54465;BME280;40374;49.480;20.016;2023-02-28T09:09:25;95955.84;;;8.92;39.03
54465;BME280;40374;49.480;20.016;2023-02-28T09:11:55;95955.88;;;9.31;38.99
54465;BME280;40374;49.480;20.016;2023-02-28T09:14:22;95955.50;;;9.23;38.27
54465;BME280;40374;49.480;20.016;2023-02-28T09:16:50;95959.19;;;8.66;38.37
54465;BME280;40374;49.480;20.016;2023-02-28T09:19:17;95943.31;;;8.47;38.44
54465;BME280;40374;49.480;20.016;2023-02-28T09:21:45;95950.19;;;8.14;39.30
54465;BME280;40374;49.480;20.016;2023-02-28T09:24:12;95955.03;;;8.75;39.66
54465;BME280;40374;49.480;20.016;2023-02-28T09:26:42;95954.22;;;8.91;38.88
54465;BME280;40374;49.480;20.016;2023-02-28T09:29:31;95954.94;;;9.04;38.12
54465;BME280;40374;49.480;20.016;2023-02-28T09:31:59;95954.53;;;8.61;38.78
54465;BME280;40374;49.480;20.016;2023-02-28T09:34:28;95954.03;;;8.47;39.15
54465;BME280;40374;49.480;20.016;2023-02-28T09:36:58;95949.19;;;8.32;39.36
54465;BME280;40374;49.480;20.016;2023-02-28T09:39:25;95955.34;;;8.45;39.20
54465;BME280;40374;49.480;20.016;2023-02-28T09:41:55;95954.06;;;8.81;40.20
54465;BME280;40374;49.480;20.016;2023-02-28T09:44:28;95936.19;;;9.65;40.38
54465;BME280;40374;49.480;20.016;2023-02-28T09:47:05;95935.06;;;10.59;38.63
54465;BME280;40374;49.480;20.016;2023-02-28T09:49:40;95936.94;;;11.33;37.03
54465;BME280;40374;49.480;20.016;2023-02-28T09:52:20;95929.09;;;11.27;34.72
54465;BME280;40374;49.480;20.016;2023-02-28T09:54:50;95938.63;;;10.65;35.82
54465;BME280;40374;49.480;20.016;2023-02-28T09:57:19;95933.13;;;10.00;36.12
54465;BME280;40374;49.480;20.016;2023-02-28T10:03:02;95940.22;;;10.33;36.83
54465;BME280;40374;49.480;20.016;2023-02-28T10:08:39;95941.50;;;10.04;37.09
54465;BME280;40374;49.480;20.016;2023-02-28T10:11:12;95943.09;;;10.27;37.23
54465;BME280;40374;49.480;20.016;2023-02-28T10:21:42;95922.56;;;11.65;34.49
54465;BME280;40374;49.480;20.016;2023-02-28T10:26:47;95916.72;;;11.84;36.19
54465;BME280;40374;49.480;20.016;2023-02-28T10:29:15;95913.31;;;12.09;34.92
54465;BME280;40374;49.480;20.016;2023-02-28T10:31:42;95924.69;;;12.26;34.73
54465;BME280;40374;49.480;20.016;2023-02-28T10:34:12;95920.66;;;12.24;35.53
54465;BME280;40374;49.480;20.016;2023-02-28T10:36:41;95913.94;;;12.31;35.61
54465;BME280;40374;49.480;20.016;2023-02-28T10:39:43;95917.72;;;12.41;35.30
54465;BME280;40374;49.480;20.016;2023-02-28T10:47:39;95904.44;;;12.13;34.76
54465;BME280;40374;49.480;20.016;2023-02-28T10:50:43;95920.06;;;12.06;36.04
54465;BME280;40374;49.480;20.016;2023-02-28T10:55:42;95906.06;;;12.14;35.76
54465;BME280;40374;49.480;20.016;2023-02-28T10:58:23;95899.88;;;12.34;36.72
54465;BME280;40374;49.480;20.016;2023-02-28T11:00:52;95901.56;;;12.56;36.12
54465;BME280;40374;49.480;20.016;2023-02-28T11:03:31;95895.88;;;12.52;35.48
54465;BME280;40374;49.480;20.016;2023-02-28T11:06:24;95891.81;;;12.29;35.87
54465;BME280;40374;49.480;20.016;2023-02-28T11:09:14;95897.41;;;12.07;35.47
54465;BME280;40374;49.480;20.016;2023-02-28T11:11:46;95896.47;;;11.18;34.81
54465;BME280;40374;49.480;20.016;2023-02-28T11:14:25;95890.13;;;10.00;35.70
54465;BME280;40374;49.480;20.016;2023-02-28T11:16:55;95878.78;;;9.71;37.04
54465;BME280;40374;49.480;20.016;2023-02-28T11:19:35;95882.28;;;9.99;39.26
54465;BME280;40374;49.480;20.016;2023-02-28T11:22:08;95870.31;;;10.11;39.86
54465;BME280;40374;49.480;20.016;2023-02-28T11:24:42;95871.75;;;10.46;39.39
54465;BME280;40374;49.480;20.016;2023-02-28T11:27:54;95873.84;;;10.71;38.64
54465;BME280;40374;49.480;20.016;2023-02-28T11:30:38;95868.91;;;11.01;39.02
54465;BME280;40374;49.480;20.016;2023-02-28T11:33:31;95871.56;;;11.48;38.97
54465;BME280;40374;49.480;20.016;2023-02-28T11:36:11;95859.81;;;11.70;38.46
54465;BME280;40374;49.480;20.016;2023-02-28T11:38:40;95866.56;;;11.72;37.88
54465;BME280;40374;49.480;20.016;2023-02-28T11:41:27;95870.44;;;11.97;38.30
54465;BME280;40374;49.480;20.016;2023-02-28T11:44:35;95862.38;;;12.12;37.49
54465;BME280;40374;49.480;20.016;2023-02-28T11:56:58;95873.75;;;12.61;36.11
54465;BME280;40374;49.480;20.016;2023-02-28T12:02:35;95871.31;;;12.44;36.93
54465;BME280;40374;49.480;20.016;2023-02-28T12:13:06;95864.84;;;12.24;37.51
54465;BME280;40374;49.480;20.016;2023-02-28T12:15:43;95862.09;;;12.09;37.36
54465;BME280;40374;49.480;20.016;2023-02-28T12:29:28;95864.56;;;12.56;37.26
54465;BME280;40374;49.480;20.016;2023-02-28T12:34:44;95863.22;;;12.38;37.11
54465;BME280;40374;49.480;20.016;2023-02-28T12:37:17;95859.16;;;12.26;36.90
54465;BME280;40374;49.480;20.016;2023-02-28T12:39:53;95866.16;;;12.16;35.83
54465;BME280;40374;49.480;20.016;2023-02-28T12:42:29;95859.97;;;12.21;37.72
54465;BME280;40374;49.480;20.016;2023-02-28T12:45:16;95863.47;;;12.32;37.87
54465;BME280;40374;49.480;20.016;2023-02-28T12:47:50;95854.28;;;12.17;37.41
54465;BME280;40374;49.480;20.016;2023-02-28T12:50:19;95854.28;;;12.12;37.30
54465;BME280;40374;49.480;20.016;2023-02-28T12:52:59;95854.81;;;11.99;38.14
54465;BME280;40374;49.480;20.016;2023-02-28T12:58:51;95853.19;;;12.13;38.77
54465;BME280;40374;49.480;20.016;2023-02-28T13:10:46;95839.41;;;11.89;39.93
54465;BME280;40374;49.480;20.016;2023-02-28T13:13:23;95848.34;;;11.95;39.54
54465;BME280;40374;49.480;20.016;2023-02-28T13:16:10;95839.09;;;11.86;39.72
54465;BME280;40374;49.480;20.016;2023-02-28T13:18:41;95845.44;;;11.44;38.96
54465;BME280;40374;49.480;20.016;2023-02-28T13:21:30;95846.25;;;10.91;40.43
54465;BME280;40374;49.480;20.016;2023-02-28T13:24:09;95850.81;;;10.53;40.97
54465;BME280;40374;49.480;20.016;2023-02-28T13:29:21;95843.34;;;10.01;41.19
54465;BME280;40374;49.480;20.016;2023-02-28T13:39:57;95842.63;;;9.12;42.97
54465;BME280;40374;49.480;20.016;2023-02-28T13:47:41;95838.09;;;8.40;45.15
54465;BME280;40374;49.480;20.016;2023-02-28T13:56:05;95828.91;;;8.02;45.24
54465;BME280;40374;49.480;20.016;2023-02-28T13:59:22;95831.16;;;8.10;45.61
54465;BME280;40374;49.480;20.016;2023-02-28T14:02:20;95821.31;;;7.99;45.23
54465;BME280;40374;49.480;20.016;2023-02-28T14:05:00;95819.78;;;8.03;46.01
54465;BME280;40374;49.480;20.016;2023-02-28T14:07:42;95818.75;;;8.04;46.44
54465;BME280;40374;49.480;20.016;2023-02-28T14:10:23;95813.47;;;8.09;45.98
54465;BME280;40374;49.480;20.016;2023-02-28T14:18:30;95828.63;;;8.21;46.02
54465;BME280;40374;49.480;20.016;2023-02-28T14:28:58;95815.59;;;7.79;46.49
54465;BME280;40374;49.480;20.016;2023-02-28T14:31:35;95813.13;;;7.89;46.75
54465;BME280;40374;49.480;20.016;2023-02-28T14:36:52;95794.50;;;7.65;47.44
54465;BME280;40374;49.480;20.016;2023-02-28T14:39:26;95807.53;;;7.90;47.54
54465;BME280;40374;49.480;20.016;2023-02-28T14:41:54;95788.25;;;7.77;47.39
54465;BME280;40374;49.480;20.016;2023-02-28T14:44:25;95804.69;;;7.97;46.45
54465;BME280;40374;49.480;20.016;2023-02-28T14:47:00;95793.50;;;8.17;46.90
54465;BME280;40374;49.480;20.016;2023-02-28T14:49:52;95790.47;;;8.64;45.67
54465;BME280;40374;49.480;20.016;2023-02-28T14:52:25;95801.13;;;8.98;43.94
54465;BME280;40374;49.480;20.016;2023-02-28T14:54:59;95791.47;;;9.46;44.28
54465;BME280;40374;49.480;20.016;2023-02-28T14:57:30;95784.75;;;9.71;44.18
54465;BME280;40374;49.480;20.016;2023-02-28T15:00:09;95773.78;;;9.72;44.02
54465;BME280;40374;49.480;20.016;2023-02-28T15:02:39;95786.25;;;9.89;44.13
54465;BME280;40374;49.480;20.016;2023-02-28T15:07:44;95795.72;;;10.29;41.39
54465;BME280;40374;49.480;20.016;2023-02-28T15:10:15;95797.03;;;10.53;42.27
54465;BME280;40374;49.480;20.016;2023-02-28T15:13:13;95795.38;;;10.90;41.73
54465;BME280;40374;49.480;20.016;2023-02-28T15:18:50;95793.97;;;10.82;41.35
54465;BME280;40374;49.480;20.016;2023-02-28T15:21:31;95809.50;;;10.65;41.88
54465;BME280;40374;49.480;20.016;2023-02-28T15:24:16;95806.75;;;10.60;42.10
54465;BME280;40374;49.480;20.016;2023-02-28T15:26:55;95805.78;;;10.33;43.02
54465;BME280;40374;49.480;20.016;2023-02-28T15:29:26;95791.72;;;9.99;42.46
54465;BME280;40374;49.480;20.016;2023-02-28T15:32:00;95811.31;;;9.94;42.46
54465;BME280;40374;49.480;20.016;2023-02-28T15:34:35;95805.03;;;9.57;42.21
54465;BME280;40374;49.480;20.016;2023-02-28T15:40:14;95803.25;;;9.18;43.64
54465;BME280;40374;49.480;20.016;2023-02-28T15:42:57;95803.53;;;9.22;43.63
54465;BME280;40374;49.480;20.016;2023-02-28T15:45:37;95798.06;;;8.89;43.77
54465;BME280;40374;49.480;20.016;2023-02-28T15:48:42;95803.09;;;8.47;44.46